• Join FlightAware (Why Join?)
  • Login
  • US Flag 
05:19AM EST


 

Airport Tracker/Info


-or-


 

Live Flight TrackerFlight Track Log ✈ AAY800 ✈ 04-May-2014 ✈ KPIE - KTOL

Flight Track Log - Related Links

Times and Time Zones

All times are in EDT time to prevent confusion due to time zone crossing. See the AAY800 flight status page for this flight to view local times or setup timezone preferences in your user account.

Time Position Orientation Groundspeed Altitude Reporting Facility
EDT Latitude Longitude Course Direction KTS MPH feet Rate Location/Type
06:33AM 27.9000 -82.6833 319° Northwest 26 30 100  Level Tampa TRACON
06:35AM 27.9167 -82.7000 319° Northwest 150 173 700 780 Climbing Tampa TRACON
06:35AM 27.9500 -82.6833 24° Northeast 159 183 2,300 2,040 Climbing Tampa TRACON
06:36AM 28.0167 -82.6667 12° North 222 255 4,400 2,160 Climbing Tampa TRACON
06:43AM 28.5601 -82.6452 North 365 420 18,600 2,160 Climbing FlightAware ADS-B (KMCO)
06:43AM 28.6135 -82.6378 North 372 428 19,700 1,680 Climbing FlightAware ADS-B (KMCO)
06:44AM 28.6995 -82.6343 North 381 438 20,900 1,680 Climbing FlightAware ADS-B (KMCO)
06:45AM 28.8466 -82.6280 North 392 451 23,300 1,680 Climbing FlightAware ADS-B (KMCO)
06:46AM 28.9186 -82.6249 North 396 456 24,400 1,500 Climbing FlightAware ADS-B (KMCO)
06:47AM 28.9937 -82.6216 North 404 465 25,300 1,200 Climbing FlightAware ADS-B (KMCO)
06:47AM 29.0489 -82.6192 North 412 474 26,100 1,080 Climbing FlightAware ADS-B (KMCO)
06:48AM 29.1446 -82.6150 North 421 484 26,800 1,080 Climbing FlightAware ADS-B (KMCO)
06:49AM 29.2278 -82.6114 North 427 491 27,600 1,080 Climbing FlightAware ADS-B (KMCO)
06:51AM 29.4747 -82.6005 North 444 511 29,800 1,080 Climbing FlightAware ADS-B (KMCO)
06:52AM 29.5557 -82.5968 North 444 511 30,600 900 Climbing FlightAware ADS-B (KMCO)
06:52AM 29.6670 -82.5920 North 453 521 31,200 720 Climbing FlightAware ADS-B (KMCO)
06:53AM 29.7659 -82.5876 North 457 526 31,800 960 Climbing FlightAware ADS-B (KMCO)
06:54AM 29.8311 -82.5847 North 454 522 32,500 1,200 Climbing FlightAware ADS-B (KMCO)
06:55AM 29.9335 -82.5801 North 452 520 33,400 960 Climbing FlightAware ADS-B (KMCO)
06:55AM 30.0194 -82.5764 North 451 519 34,000 900 Climbing FlightAware ADS-B (KMCO)
06:56AM 30.1013 -82.5726 North 451 519 34,600 900 Climbing FlightAware ADS-B (KMCO)
06:56AM 30.1852 -82.5688 North 450 518 35,200 900 Climbing FlightAware ADS-B (KMCO)
06:57AM 30.2646 -82.5654 North 447 514 35,800 780 Climbing FlightAware ADS-B (KMCO)
06:58AM 30.3526 -82.5615 North 447 514 36,300 660 Climbing FlightAware ADS-B (KMCO)
06:58AM 30.4341 -82.5578 North 447 514 36,700 480 Climbing FlightAware ADS-B (KMCO)
06:59AM 30.5164 -82.5541 North 448 516 37,000 180 Climbing FlightAware ADS-B (KMCO)
07:00AM 30.5991 -82.5504 North 445 512 37,000  Level FlightAware ADS-B (KMCO)
07:01AM 30.6827 -82.5467 North 443 510 37,000  Level FlightAware ADS-B (KMCO)
07:02AM 30.8140 -82.5408 North 442 509 37,000  Level FlightAware ADS-B (KMCO)
07:03AM 30.9709 -82.5336 North 441 507 37,000  Level FlightAware ADS-B (KMCO)
07:04AM 31.1200 -82.5311 North 439 505 37,000 -60 Level Jacksonville Center
07:05AM 31.2411 -82.5256 North 439 505 36,900  Descending Jacksonville Center
07:06AM 31.3767 -82.5153 North 439 505 37,000  Climbing Jacksonville Center
07:07AM 31.5000 -82.5125 North 439 505 37,000  Level Jacksonville Center
07:09AM 31.7003 -82.5644 348° North 420 483 37,000  Level Atlanta Center
07:10AM 31.8111 -82.5994 345° North 415 478 37,000 -60 Level Atlanta Center
07:11AM 31.9222 -82.6367 344° North 410 472 36,900 -60 Descending Atlanta Center
07:12AM 32.0333 -82.6742 344° North 410 472 36,900  Level Atlanta Center
07:13AM 32.1464 -82.7117 344° North 415 478 37,000  Climbing Atlanta Center
07:14AM 32.2594 -82.7494 344° North 420 483 37,000  Level Atlanta Center
07:15AM 32.3728 -82.7894 343° North 420 483 37,000  Level Atlanta Center
07:16AM 32.4919 -82.8272 345° North 420 483 37,000  Level Atlanta Center
07:17AM 32.6008 -82.8653 344° North 420 483 37,000  Level Atlanta Center
07:18AM 32.7161 -82.9006 346° North 420 483 37,000  Level Atlanta Center
07:19AM 32.8333 -82.9436 343° North 425 489 37,000  Level Atlanta Center
07:20AM 32.9464 -82.9819 344° North 425 489 37,000  Level Atlanta Center
07:21AM 33.0364 -83.0131 344° North 420 483 37,000 -60 Level Atlanta Center
07:22AM 33.1706 -83.0611 343° North 420 483 36,900  Descending Atlanta Center
07:23AM 33.2814 -83.0994 344° North 414 476 37,000  Climbing Atlanta Center
07:24AM 33.3944 -83.1356 345° North 414 476 37,000  Level Atlanta Center
07:25AM 33.5072 -83.1744 344° North 417 480 37,000  Level Atlanta Center
07:26AM 33.6183 -83.2106 345° North 417 480 37,000  Level Atlanta Center
07:30AM 34.2328 -83.4058 347° North 410 472 37,000  Level FlightAware ADS-B (KDZJ)
07:31AM 34.3081 -83.4274 346° North 401 461 37,000  Level FlightAware ADS-B (KDZJ)
07:31AM 34.3732 -83.4460 346° North 399 459 37,000  Level FlightAware ADS-B (KDZJ)
07:32AM 34.4482 -83.4677 346° North 399 459 37,000  Level FlightAware ADS-B (KDZJ)
07:33AM 34.5192 -83.4881 346° North 399 459 37,000  Level FlightAware ADS-B (KDZJ)
07:33AM 34.6023 -83.5121 346° North 398 458 37,000  Level FlightAware ADS-B (KDZJ)
07:34AM 34.6700 -83.5315 346° North 396 456 37,000  Level FlightAware ADS-B (KDZJ)
07:35AM 34.7465 -83.5538 346° North 398 458 37,000  Level FlightAware ADS-B (KDZJ)
07:35AM 34.8202 -83.5753 346° North 399 459 37,000  Level FlightAware ADS-B (KDZJ)
07:36AM 34.8893 -83.5955 346° North 397 457 37,000  Level FlightAware ADS-B (KDZJ)
07:37AM 34.9690 -83.6186 346° North 397 457 37,000 120 Level FlightAware ADS-B (KDZJ)
07:37AM 35.0407 -83.6360 352° North 406 467 37,200 480 Climbing FlightAware ADS-B (KDZJ)
07:38AM 35.1190 -83.6499 352° North 403 464 37,700 600 Climbing FlightAware ADS-B (KDZJ)
07:39AM 35.1918 -83.6628 352° North 410 472 38,000 240 Climbing FlightAware ADS-B (KDZJ)
07:39AM 35.2505 -83.6733 352° North 410 472 38,000  Level FlightAware ADS-B (KDZJ)
07:40AM 35.3386 -83.6892 352° North 406 467 38,000  Level FlightAware ADS-B (KDZJ)
07:41AM 35.4091 -83.7019 352° North 407 468 38,000  Level FlightAware ADS-B (KDZJ)
07:41AM 35.4766 -83.7141 352° North 409 471 38,000  Level FlightAware ADS-B (KDZJ)
07:42AM 35.3903 -83.7000 352° North 403 464 38,000  Level Atlanta Center
07:43AM 35.5031 -83.7200 352° North 408 470 38,000  Level Atlanta Center
07:45AM 35.6956 -83.7536 352° North 416 479 38,000  Level Indianapolis Center
07:46AM 35.8108 -83.7736 352° North 417 480 38,000  Level Indianapolis Center
07:47AM 35.9261 -83.7944 352° North 417 480 38,000  Level Indianapolis Center
07:48AM 36.0514 -83.8178 351° North 417 480 38,000  Level Indianapolis Center
07:49AM 36.1647 -83.8392 351° North 417 480 38,000  Level Indianapolis Center
07:50AM 36.2767 -83.8597 352° North 414 476 38,000  Level Indianapolis Center
07:51AM 36.3867 -83.8794 352° North 407 468 38,000 -60 Level Indianapolis Center
07:52AM 36.4964 -83.8992 352° North 403 464 37,900 -60 Descending Indianapolis Center
07:53AM 36.6044 -83.8922 North 407 468 37,900  Level Indianapolis Center
07:54AM 36.7392 -83.8867 North 408 470 38,000  Climbing Indianapolis Center
07:55AM 36.8542 -83.8814 North 409 471 38,000  Level Indianapolis Center
07:56AM 36.9675 -83.8761 North 409 471 38,000  Level Indianapolis Center
07:57AM 37.0825 -83.8706 North 409 471 38,000  Level Indianapolis Center
07:58AM 37.1975 -83.8647 North 410 472 38,000  Level Indianapolis Center
07:59AM 37.3117 -83.8589 North 410 472 38,000  Level Indianapolis Center
08:00AM 37.4256 -83.8539 North 409 471 38,000  Level Indianapolis Center
08:01AM 37.5417 -83.8467 North 410 472 38,000  Level Indianapolis Center
08:06AM 38.1767 -83.8151 North 401 461 38,000 -60 Level FlightAware ADS-B
08:08AM 38.3206 -83.8075 North 401 461 37,600 -600 Descending FlightAware ADS-B
08:08AM 38.3846 -83.8042 North 401 461 36,900 -1,020 Descending FlightAware ADS-B
08:09AM 38.4555 -83.8005 North 401 461 36,400 -1,020 Descending FlightAware ADS-B
08:09AM 38.5027 -83.7980 North 400 460 35,900 -1,020 Descending FlightAware ADS-B
08:10AM 38.5771 -83.7941 North 400 460 35,300 -960 Descending FlightAware ADS-B
08:11AM 38.6553 -83.7902 North 404 465 34,700 -960 Descending FlightAware ADS-B
08:11AM 38.7041 -83.7877 North 408 470 34,200 -1,080 Descending FlightAware ADS-B
08:12AM 38.7870 -83.7834 North 410 472 33,500 -960 Descending FlightAware ADS-B
08:12AM 38.8442 -83.7803 North 405 466 33,100 -540 Descending FlightAware ADS-B
08:13AM 38.8909 -83.7778 North 406 467 33,000 -120 Descending FlightAware ADS-B
08:13AM 38.9549 -83.7746 North 406 467 33,000  Level FlightAware ADS-B
08:14AM 39.0228 -83.7710 North 405 466 33,000  Level FlightAware ADS-B
08:15AM 39.0728 -83.7684 North 403 464 33,000  Level FlightAware ADS-B
08:15AM 39.1532 -83.7641 North 402 463 33,000 -300 Level FlightAware ADS-B
08:16AM 39.2130 -83.7610 North 400 460 32,700 -1,200 Descending FlightAware ADS-B
08:16AM 39.2856 -83.7567 North 389 448 31,600 -1,680 Descending FlightAware ADS-B
08:19AM 39.5142 -83.7451 North 376 433 28,100 -1,680 Descending FlightAware ADS-B
08:19AM 39.5705 -83.7421 North 369 425 27,200 -1,680 Descending FlightAware ADS-B
08:20AM 39.6204 -83.7394 North 361 415 26,200 -1,500 Descending FlightAware ADS-B
08:20AM 39.6781 -83.7356 North 365 420 25,400 -780 Descending Cleveland Center
08:21AM 39.7900 -83.7308 North 352 405 25,000 -600 Descending Cleveland Center
08:23AM 39.8936 -83.7244 North 350 403 24,200 -540 Descending Indianapolis Center
08:24AM 39.9908 -83.7194 North 349 402 23,900 -1,140 Descending Indianapolis Center
08:25AM 40.0858 -83.7139 North 345 397 21,900 -1,740 Descending Indianapolis Center
08:26AM 40.1786 -83.7094 North 337 388 20,400 -1,560 Descending Indianapolis Center
08:27AM 40.2644 -83.7042 North 317 365 18,800 -1,620 Descending Indianapolis Center
08:28AM 40.3667 -83.6983 North 310 357 17,100 -900 Descending Indianapolis Center
08:29AM 40.4494 -83.6950 North 304 350 17,000 -60 Descending Indianapolis Center
08:30AM 40.5331 -83.6903 North 303 349 17,000  Level Indianapolis Center
08:31AM 40.6169 -83.6847 North 303 349 17,000  Level Indianapolis Center
08:32AM 40.7008 -83.6808 North 303 349 17,000  Level Indianapolis Center
08:33AM 40.7853 -83.6747 North 303 349 17,000 -540 Level Indianapolis Center
08:34AM 40.8694 -83.6708 North 303 349 16,000 -1,320 Descending Indianapolis Center
08:35AM 40.9361 -83.6667 North 300 345 14,700 -1,680 Descending Cleveland Center
08:36AM 41.0169 -83.6636 North 294 338 13,000 -1,740 Descending Cleveland Center
08:37AM 41.1039 -83.6628 360° North 281 323 11,200 -1,440 Descending Cleveland Center
08:38AM 41.1764 -83.6697 356° North 264 304 10,100 -1,260 Descending Cleveland Center
08:39AM 41.2444 -83.6719 359° North 246 283 8,700 -1,140 Descending Cleveland Center
08:40AM 41.3106 -83.6747 358° North 241 277 7,800 -900 Descending Cleveland Center
08:41AM 41.3697 -83.6739 North 218 251 6,900 -960 Descending Cleveland Center
08:42AM 41.4222 -83.6708 North 193 222 5,900 -1,320 Descending Cleveland Center
08:43AM 41.4800 -83.6758 356° North 179 206 4,300 -1,380 Descending Cleveland Center
08:44AM 41.5300 -83.6883 349° North 178 205 3,100 -960 Descending Cleveland Center
08:45AM 41.5722 -83.7025 346° North 168 193 2,400 -720 Descending Cleveland Center
08:46AM 41.6006 -83.7308 323° Northwest 156 180 1,700 -420 Descending Cleveland Center
08:47AM 41.6300 -83.7789 309° West 160 184 1,600 -120 Descending Cleveland Center